sensor_id;sensor_type;location;lat;lon;timestamp;P1;durP1;ratioP1;P2;durP2;ratioP2
16593;SDS011;8410;52.532;13.336;2023-02-28T00:01:08;7.40;;;4.47;;
16593;SDS011;8410;52.532;13.336;2023-02-28T00:03:36;7.50;;;4.80;;
16593;SDS011;8410;52.532;13.336;2023-02-28T00:06:04;8.40;;;4.87;;
16593;SDS011;8410;52.532;13.336;2023-02-28T00:08:33;6.17;;;4.50;;
16593;SDS011;8410;52.532;13.336;2023-02-28T00:11:01;9.67;;;5.20;;
16593;SDS011;8410;52.532;13.336;2023-02-28T00:13:31;7.07;;;4.63;;
16593;SDS011;8410;52.532;13.336;2023-02-28T00:16:01;7.93;;;4.93;;
16593;SDS011;8410;52.532;13.336;2023-02-28T00:18:30;9.70;;;5.00;;
16593;SDS011;8410;52.532;13.336;2023-02-28T00:20:58;8.53;;;5.07;;
16593;SDS011;8410;52.532;13.336;2023-02-28T00:23:26;6.07;;;4.40;;
16593;SDS011;8410;52.532;13.336;2023-02-28T00:25:54;8.03;;;4.50;;
16593;SDS011;8410;52.532;13.336;2023-02-28T00:28:21;8.93;;;5.23;;
16593;SDS011;8410;52.532;13.336;2023-02-28T00:30:50;13.13;;;4.57;;
16593;SDS011;8410;52.532;13.336;2023-02-28T00:33:18;7.73;;;4.10;;
16593;SDS011;8410;52.532;13.336;2023-02-28T00:35:46;6.17;;;4.17;;
16593;SDS011;8410;52.532;13.336;2023-02-28T00:38:15;5.77;;;3.90;;
16593;SDS011;8410;52.532;13.336;2023-02-28T00:40:42;4.60;;;4.10;;
16593;SDS011;8410;52.532;13.336;2023-02-28T00:43:10;6.63;;;3.97;;
16593;SDS011;8410;52.532;13.336;2023-02-28T00:45:37;6.60;;;4.10;;
16593;SDS011;8410;52.532;13.336;2023-02-28T00:48:06;5.77;;;3.80;;
16593;SDS011;8410;52.532;13.336;2023-02-28T00:50:34;6.37;;;4.07;;
16593;SDS011;8410;52.532;13.336;2023-02-28T00:53:01;6.13;;;4.40;;
16593;SDS011;8410;52.532;13.336;2023-02-28T00:55:28;5.07;;;3.57;;
16593;SDS011;8410;52.532;13.336;2023-02-28T00:57:56;6.47;;;3.93;;
16593;SDS011;8410;52.532;13.336;2023-02-28T01:00:23;7.30;;;4.10;;
16593;SDS011;8410;52.532;13.336;2023-02-28T01:02:51;6.27;;;3.53;;
16593;SDS011;8410;52.532;13.336;2023-02-28T01:05:20;5.30;;;3.20;;
16593;SDS011;8410;52.532;13.336;2023-02-28T01:07:47;5.90;;;3.90;;
16593;SDS011;8410;52.532;13.336;2023-02-28T01:10:15;5.10;;;3.87;;
16593;SDS011;8410;52.532;13.336;2023-02-28T01:12:43;5.97;;;3.80;;
16593;SDS011;8410;52.532;13.336;2023-02-28T01:15:13;9.00;;;4.07;;
16593;SDS011;8410;52.532;13.336;2023-02-28T01:17:40;4.50;;;3.63;;
16593;SDS011;8410;52.532;13.336;2023-02-28T01:20:08;7.80;;;4.17;;
16593;SDS011;8410;52.532;13.336;2023-02-28T01:22:38;7.67;;;3.60;;
16593;SDS011;8410;52.532;13.336;2023-02-28T01:25:06;4.37;;;3.60;;
16593;SDS011;8410;52.532;13.336;2023-02-28T01:27:34;5.83;;;4.40;;
16593;SDS011;8410;52.532;13.336;2023-02-28T01:30:02;6.70;;;3.93;;
16593;SDS011;8410;52.532;13.336;2023-02-28T01:32:30;5.20;;;4.10;;
16593;SDS011;8410;52.532;13.336;2023-02-28T01:34:57;6.40;;;3.77;;
16593;SDS011;8410;52.532;13.336;2023-02-28T01:37:25;6.40;;;4.03;;
16593;SDS011;8410;52.532;13.336;2023-02-28T01:39:53;6.77;;;3.97;;
16593;SDS011;8410;52.532;13.336;2023-02-28T01:42:21;5.80;;;4.07;;
16593;SDS011;8410;52.532;13.336;2023-02-28T01:44:59;5.97;;;4.60;;
16593;SDS011;8410;52.532;13.336;2023-02-28T01:47:38;8.57;;;4.10;;
16593;SDS011;8410;52.532;13.336;2023-02-28T01:50:16;5.90;;;3.80;;
16593;SDS011;8410;52.532;13.336;2023-02-28T01:52:47;6.37;;;4.00;;
16593;SDS011;8410;52.532;13.336;2023-02-28T01:55:16;5.97;;;3.70;;
16593;SDS011;8410;52.532;13.336;2023-02-28T01:57:46;7.20;;;4.33;;
16593;SDS011;8410;52.532;13.336;2023-02-28T02:00:18;6.03;;;3.90;;
16593;SDS011;8410;52.532;13.336;2023-02-28T02:02:51;5.93;;;4.40;;
16593;SDS011;8410;52.532;13.336;2023-02-28T02:05:23;6.10;;;3.53;;
16593;SDS011;8410;52.532;13.336;2023-02-28T02:07:52;6.23;;;3.93;;
16593;SDS011;8410;52.532;13.336;2023-02-28T02:10:24;4.90;;;3.87;;
16593;SDS011;8410;52.532;13.336;2023-02-28T02:13:08;6.60;;;3.90;;
16593;SDS011;8410;52.532;13.336;2023-02-28T02:15:47;4.33;;;3.37;;
16593;SDS011;8410;52.532;13.336;2023-02-28T02:18:26;11.10;;;4.60;;
16593;SDS011;8410;52.532;13.336;2023-02-28T02:21:03;6.63;;;4.13;;
16593;SDS011;8410;52.532;13.336;2023-02-28T02:26:56;4.50;;;3.80;;
16593;SDS011;8410;52.532;13.336;2023-02-28T02:35:32;6.87;;;4.33;;
16593;SDS011;8410;52.532;13.336;2023-02-28T02:38:06;6.47;;;4.07;;
16593;SDS011;8410;52.532;13.336;2023-02-28T02:40:42;6.13;;;4.63;;
16593;SDS011;8410;52.532;13.336;2023-02-28T02:43:15;5.77;;;4.47;;
16593;SDS011;8410;52.532;13.336;2023-02-28T02:45:47;6.90;;;4.27;;
16593;SDS011;8410;52.532;13.336;2023-02-28T02:48:20;6.87;;;4.30;;
16593;SDS011;8410;52.532;13.336;2023-02-28T02:50:54;6.33;;;4.50;;
16593;SDS011;8410;52.532;13.336;2023-02-28T02:53:24;7.90;;;4.63;;
16593;SDS011;8410;52.532;13.336;2023-02-28T02:55:56;5.90;;;4.13;;
16593;SDS011;8410;52.532;13.336;2023-02-28T02:58:29;5.70;;;4.23;;
16593;SDS011;8410;52.532;13.336;2023-02-28T03:01:01;6.77;;;4.60;;
16593;SDS011;8410;52.532;13.336;2023-02-28T03:03:31;5.97;;;4.50;;
16593;SDS011;8410;52.532;13.336;2023-02-28T03:06:02;5.63;;;3.90;;
16593;SDS011;8410;52.532;13.336;2023-02-28T03:08:33;6.13;;;4.07;;
16593;SDS011;8410;52.532;13.336;2023-02-28T03:11:04;6.23;;;4.20;;
16593;SDS011;8410;52.532;13.336;2023-02-28T03:13:48;5.23;;;3.97;;
16593;SDS011;8410;52.532;13.336;2023-02-28T03:16:35;6.23;;;4.50;;
16593;SDS011;8410;52.532;13.336;2023-02-28T03:19:24;7.43;;;4.27;;
16593;SDS011;8410;52.532;13.336;2023-02-28T03:22:04;6.87;;;4.77;;
16593;SDS011;8410;52.532;13.336;2023-02-28T03:24:42;7.00;;;4.37;;
16593;SDS011;8410;52.532;13.336;2023-02-28T03:27:17;7.07;;;5.43;;
16593;SDS011;8410;52.532;13.336;2023-02-28T03:29:51;6.10;;;4.60;;
16593;SDS011;8410;52.532;13.336;2023-02-28T03:32:26;8.60;;;5.10;;
16593;SDS011;8410;52.532;13.336;2023-02-28T03:34:58;7.10;;;4.70;;
16593;SDS011;8410;52.532;13.336;2023-02-28T03:37:35;6.90;;;4.63;;
16593;SDS011;8410;52.532;13.336;2023-02-28T03:40:07;6.30;;;4.77;;
16593;SDS011;8410;52.532;13.336;2023-02-28T03:42:39;8.63;;;5.00;;
16593;SDS011;8410;52.532;13.336;2023-02-28T03:45:10;7.57;;;4.30;;
16593;SDS011;8410;52.532;13.336;2023-02-28T03:47:41;9.97;;;5.10;;
16593;SDS011;8410;52.532;13.336;2023-02-28T03:50:15;7.47;;;5.00;;
16593;SDS011;8410;52.532;13.336;2023-02-28T03:52:48;8.50;;;4.90;;
16593;SDS011;8410;52.532;13.336;2023-02-28T03:55:20;8.27;;;5.00;;
16593;SDS011;8410;52.532;13.336;2023-02-28T03:57:51;8.93;;;5.00;;
16593;SDS011;8410;52.532;13.336;2023-02-28T04:00:26;8.60;;;4.93;;
16593;SDS011;8410;52.532;13.336;2023-02-28T04:02:56;6.13;;;4.87;;
16593;SDS011;8410;52.532;13.336;2023-02-28T04:05:23;7.97;;;5.50;;
16593;SDS011;8410;52.532;13.336;2023-02-28T04:07:52;7.57;;;5.20;;
16593;SDS011;8410;52.532;13.336;2023-02-28T04:10:20;9.70;;;5.30;;
16593;SDS011;8410;52.532;13.336;2023-02-28T04:12:47;8.37;;;5.47;;
16593;SDS011;8410;52.532;13.336;2023-02-28T04:15:15;8.80;;;5.17;;
16593;SDS011;8410;52.532;13.336;2023-02-28T04:17:42;7.80;;;4.80;;
16593;SDS011;8410;52.532;13.336;2023-02-28T04:20:10;7.77;;;5.30;;
16593;SDS011;8410;52.532;13.336;2023-02-28T04:22:38;8.00;;;4.90;;
16593;SDS011;8410;52.532;13.336;2023-02-28T04:25:07;5.20;;;4.43;;
16593;SDS011;8410;52.532;13.336;2023-02-28T04:27:35;8.20;;;5.10;;
16593;SDS011;8410;52.532;13.336;2023-02-28T04:30:03;7.27;;;5.60;;
16593;SDS011;8410;52.532;13.336;2023-02-28T04:32:31;6.73;;;5.30;;
16593;SDS011;8410;52.532;13.336;2023-02-28T04:34:58;7.63;;;5.43;;
16593;SDS011;8410;52.532;13.336;2023-02-28T04:37:26;8.00;;;5.93;;
16593;SDS011;8410;52.532;13.336;2023-02-28T04:39:55;8.50;;;5.30;;
16593;SDS011;8410;52.532;13.336;2023-02-28T04:42:23;8.67;;;5.63;;
16593;SDS011;8410;52.532;13.336;2023-02-28T04:44:51;9.23;;;5.83;;
16593;SDS011;8410;52.532;13.336;2023-02-28T04:47:18;9.13;;;6.17;;
16593;SDS011;8410;52.532;13.336;2023-02-28T04:49:46;6.57;;;5.30;;
16593;SDS011;8410;52.532;13.336;2023-02-28T04:52:13;9.67;;;5.70;;
16593;SDS011;8410;52.532;13.336;2023-02-28T04:54:41;10.47;;;6.57;;
16593;SDS011;8410;52.532;13.336;2023-02-28T04:57:08;9.80;;;6.30;;
16593;SDS011;8410;52.532;13.336;2023-02-28T04:59:37;8.47;;;5.73;;
16593;SDS011;8410;52.532;13.336;2023-02-28T05:02:04;10.73;;;5.80;;
16593;SDS011;8410;52.532;13.336;2023-02-28T05:04:33;9.37;;;5.97;;
16593;SDS011;8410;52.532;13.336;2023-02-28T05:07:01;9.13;;;6.27;;
16593;SDS011;8410;52.532;13.336;2023-02-28T05:09:30;9.13;;;6.00;;
16593;SDS011;8410;52.532;13.336;2023-02-28T05:11:59;9.27;;;5.80;;
16593;SDS011;8410;52.532;13.336;2023-02-28T05:14:26;10.73;;;5.87;;
16593;SDS011;8410;52.532;13.336;2023-02-28T05:16:55;8.70;;;6.83;;
16593;SDS011;8410;52.532;13.336;2023-02-28T05:19:22;9.83;;;6.57;;
16593;SDS011;8410;52.532;13.336;2023-02-28T05:21:50;10.67;;;7.40;;
16593;SDS011;8410;52.532;13.336;2023-02-28T05:24:19;10.53;;;6.50;;
16593;SDS011;8410;52.532;13.336;2023-02-28T05:26:49;10.20;;;6.57;;
16593;SDS011;8410;52.532;13.336;2023-02-28T05:29:18;8.20;;;6.30;;
16593;SDS011;8410;52.532;13.336;2023-02-28T05:31:46;10.70;;;7.00;;
16593;SDS011;8410;52.532;13.336;2023-02-28T05:34:15;10.13;;;6.60;;
16593;SDS011;8410;52.532;13.336;2023-02-28T05:36:43;10.03;;;6.33;;
16593;SDS011;8410;52.532;13.336;2023-02-28T05:39:11;11.67;;;7.23;;
16593;SDS011;8410;52.532;13.336;2023-02-28T05:41:40;11.00;;;6.90;;
16593;SDS011;8410;52.532;13.336;2023-02-28T05:44:07;11.47;;;6.63;;
16593;SDS011;8410;52.532;13.336;2023-02-28T05:46:35;11.03;;;6.93;;
16593;SDS011;8410;52.532;13.336;2023-02-28T05:49:03;10.67;;;6.87;;
16593;SDS011;8410;52.532;13.336;2023-02-28T05:51:32;11.73;;;7.73;;
16593;SDS011;8410;52.532;13.336;2023-02-28T05:54:00;11.80;;;8.50;;
16593;SDS011;8410;52.532;13.336;2023-02-28T05:56:28;12.53;;;7.70;;
16593;SDS011;8410;52.532;13.336;2023-02-28T05:58:56;13.83;;;7.07;;
16593;SDS011;8410;52.532;13.336;2023-02-28T06:01:24;11.40;;;6.90;;
16593;SDS011;8410;52.532;13.336;2023-02-28T06:03:59;12.73;;;7.30;;
16593;SDS011;8410;52.532;13.336;2023-02-28T06:06:27;21.00;;;7.47;;
16593;SDS011;8410;52.532;13.336;2023-02-28T06:08:57;33.00;;;9.00;;
16593;SDS011;8410;52.532;13.336;2023-02-28T06:11:24;12.60;;;7.57;;
16593;SDS011;8410;52.532;13.336;2023-02-28T06:13:54;19.00;;;10.47;;
16593;SDS011;8410;52.532;13.336;2023-02-28T06:16:22;11.00;;;7.93;;
16593;SDS011;8410;52.532;13.336;2023-02-28T06:18:50;14.40;;;9.67;;
16593;SDS011;8410;52.532;13.336;2023-02-28T06:21:18;21.57;;;10.93;;
16593;SDS011;8410;52.532;13.336;2023-02-28T06:23:46;15.27;;;10.63;;
16593;SDS011;8410;52.532;13.336;2023-02-28T06:26:15;19.07;;;10.30;;
16593;SDS011;8410;52.532;13.336;2023-02-28T06:28:42;22.13;;;11.40;;
16593;SDS011;8410;52.532;13.336;2023-02-28T06:31:11;23.47;;;12.63;;
16593;SDS011;8410;52.532;13.336;2023-02-28T06:33:40;27.50;;;15.57;;
16593;SDS011;8410;52.532;13.336;2023-02-28T06:36:09;20.60;;;13.07;;
16593;SDS011;8410;52.532;13.336;2023-02-28T06:38:38;16.50;;;10.53;;
16593;SDS011;8410;52.532;13.336;2023-02-28T06:41:07;19.30;;;10.37;;
16593;SDS011;8410;52.532;13.336;2023-02-28T06:43:38;16.40;;;10.33;;
16593;SDS011;8410;52.532;13.336;2023-02-28T06:46:08;15.97;;;9.50;;
16593;SDS011;8410;52.532;13.336;2023-02-28T06:48:38;13.93;;;10.10;;
16593;SDS011;8410;52.532;13.336;2023-02-28T06:51:06;18.83;;;10.97;;
16593;SDS011;8410;52.532;13.336;2023-02-28T06:53:36;19.20;;;11.17;;
16593;SDS011;8410;52.532;13.336;2023-02-28T06:56:04;19.73;;;9.97;;
16593;SDS011;8410;52.532;13.336;2023-02-28T06:58:33;27.53;;;10.73;;
16593;SDS011;8410;52.532;13.336;2023-02-28T07:01:02;18.93;;;11.03;;
16593;SDS011;8410;52.532;13.336;2023-02-28T07:03:31;17.17;;;10.03;;
16593;SDS011;8410;52.532;13.336;2023-02-28T07:05:59;20.27;;;10.67;;
16593;SDS011;8410;52.532;13.336;2023-02-28T07:08:28;13.97;;;10.30;;
16593;SDS011;8410;52.532;13.336;2023-02-28T07:10:55;14.20;;;9.60;;
16593;SDS011;8410;52.532;13.336;2023-02-28T07:13:23;19.27;;;10.87;;
16593;SDS011;8410;52.532;13.336;2023-02-28T07:15:54;16.97;;;10.67;;
16593;SDS011;8410;52.532;13.336;2023-02-28T07:18:24;16.83;;;10.43;;
16593;SDS011;8410;52.532;13.336;2023-02-28T07:20:52;18.37;;;10.70;;
16593;SDS011;8410;52.532;13.336;2023-02-28T07:23:20;23.07;;;11.10;;
16593;SDS011;8410;52.532;13.336;2023-02-28T07:25:49;19.40;;;10.87;;
16593;SDS011;8410;52.532;13.336;2023-02-28T07:28:18;18.63;;;10.43;;
16593;SDS011;8410;52.532;13.336;2023-02-28T07:30:45;31.23;;;11.83;;
16593;SDS011;8410;52.532;13.336;2023-02-28T07:33:14;33.37;;;11.50;;
16593;SDS011;8410;52.532;13.336;2023-02-28T07:35:43;21.27;;;11.00;;
16593;SDS011;8410;52.532;13.336;2023-02-28T07:38:11;20.50;;;11.13;;
16593;SDS011;8410;52.532;13.336;2023-02-28T07:40:39;20.07;;;9.50;;
16593;SDS011;8410;52.532;13.336;2023-02-28T07:43:07;17.60;;;9.90;;
16593;SDS011;8410;52.532;13.336;2023-02-28T07:45:34;20.83;;;11.20;;
16593;SDS011;8410;52.532;13.336;2023-02-28T07:48:02;19.17;;;10.40;;
16593;SDS011;8410;52.532;13.336;2023-02-28T07:50:30;17.97;;;10.63;;
16593;SDS011;8410;52.532;13.336;2023-02-28T07:52:59;15.43;;;9.33;;
16593;SDS011;8410;52.532;13.336;2023-02-28T07:55:26;15.23;;;10.03;;
16593;SDS011;8410;52.532;13.336;2023-02-28T07:57:54;13.60;;;8.50;;
16593;SDS011;8410;52.532;13.336;2023-02-28T08:00:22;13.00;;;9.23;;
16593;SDS011;8410;52.532;13.336;2023-02-28T08:02:50;17.83;;;8.73;;
16593;SDS011;8410;52.532;13.336;2023-02-28T08:05:18;15.20;;;9.03;;
16593;SDS011;8410;52.532;13.336;2023-02-28T08:07:48;13.53;;;8.77;;
16593;SDS011;8410;52.532;13.336;2023-02-28T08:10:18;12.57;;;8.10;;
16593;SDS011;8410;52.532;13.336;2023-02-28T08:12:45;10.60;;;7.40;;
16593;SDS011;8410;52.532;13.336;2023-02-28T08:15:12;15.17;;;8.40;;
16593;SDS011;8410;52.532;13.336;2023-02-28T08:17:40;10.10;;;7.40;;
16593;SDS011;8410;52.532;13.336;2023-02-28T08:20:08;14.57;;;7.30;;
16593;SDS011;8410;52.532;13.336;2023-02-28T08:22:37;13.10;;;6.73;;
16593;SDS011;8410;52.532;13.336;2023-02-28T08:25:05;10.37;;;6.40;;
16593;SDS011;8410;52.532;13.336;2023-02-28T08:27:35;10.23;;;6.30;;
16593;SDS011;8410;52.532;13.336;2023-02-28T08:30:02;10.37;;;5.67;;
16593;SDS011;8410;52.532;13.336;2023-02-28T08:32:31;4.50;;;3.53;;
16593;SDS011;8410;52.532;13.336;2023-02-28T08:34:59;5.73;;;3.23;;
16593;SDS011;8410;52.532;13.336;2023-02-28T08:37:28;4.63;;;2.07;;
16593;SDS011;8410;52.532;13.336;2023-02-28T08:39:55;2.70;;;2.00;;
16593;SDS011;8410;52.532;13.336;2023-02-28T08:42:23;2.77;;;1.87;;
16593;SDS011;8410;52.532;13.336;2023-02-28T08:44:52;2.13;;;1.83;;
16593;SDS011;8410;52.532;13.336;2023-02-28T08:47:19;3.57;;;2.47;;
16593;SDS011;8410;52.532;13.336;2023-02-28T08:49:47;3.17;;;2.27;;
16593;SDS011;8410;52.532;13.336;2023-02-28T08:52:14;4.87;;;2.23;;
16593;SDS011;8410;52.532;13.336;2023-02-28T08:54:42;4.67;;;2.53;;
16593;SDS011;8410;52.532;13.336;2023-02-28T08:57:09;2.97;;;1.70;;
16593;SDS011;8410;52.532;13.336;2023-02-28T08:59:37;3.03;;;2.10;;
16593;SDS011;8410;52.532;13.336;2023-02-28T09:02:06;3.67;;;2.03;;
16593;SDS011;8410;52.532;13.336;2023-02-28T09:04:33;2.67;;;2.20;;
16593;SDS011;8410;52.532;13.336;2023-02-28T09:07:01;7.83;;;4.50;;
16593;SDS011;8410;52.532;13.336;2023-02-28T09:09:28;3.70;;;3.10;;
16593;SDS011;8410;52.532;13.336;2023-02-28T09:11:56;2.67;;;2.40;;
16593;SDS011;8410;52.532;13.336;2023-02-28T09:14:23;4.60;;;1.80;;
16593;SDS011;8410;52.532;13.336;2023-02-28T09:16:51;2.07;;;1.73;;
16593;SDS011;8410;52.532;13.336;2023-02-28T09:19:20;4.97;;;2.47;;
16593;SDS011;8410;52.532;13.336;2023-02-28T09:21:48;5.57;;;2.03;;
16593;SDS011;8410;52.532;13.336;2023-02-28T09:24:16;2.90;;;2.40;;
16593;SDS011;8410;52.532;13.336;2023-02-28T09:26:44;3.77;;;2.67;;
16593;SDS011;8410;52.532;13.336;2023-02-28T09:29:29;4.70;;;2.07;;
16593;SDS011;8410;52.532;13.336;2023-02-28T09:31:56;4.17;;;2.17;;
16593;SDS011;8410;52.532;13.336;2023-02-28T09:34:26;4.20;;;2.17;;
16593;SDS011;8410;52.532;13.336;2023-02-28T09:36:57;4.13;;;1.93;;
16593;SDS011;8410;52.532;13.336;2023-02-28T09:39:24;5.17;;;2.20;;
16593;SDS011;8410;52.532;13.336;2023-02-28T09:41:52;6.87;;;2.60;;
16593;SDS011;8410;52.532;13.336;2023-02-28T09:44:23;2.83;;;2.00;;
16593;SDS011;8410;52.532;13.336;2023-02-28T09:46:57;2.30;;;2.10;;
16593;SDS011;8410;52.532;13.336;2023-02-28T09:49:31;5.77;;;2.20;;
16593;SDS011;8410;52.532;13.336;2023-02-28T09:52:04;4.20;;;2.20;;
16593;SDS011;8410;52.532;13.336;2023-02-28T09:54:35;4.53;;;2.77;;
16593;SDS011;8410;52.532;13.336;2023-02-28T09:57:06;5.37;;;2.10;;
16593;SDS011;8410;52.532;13.336;2023-02-28T09:59:39;1.63;;;1.50;;
16593;SDS011;8410;52.532;13.336;2023-02-28T10:02:23;4.67;;;1.97;;
16593;SDS011;8410;52.532;13.336;2023-02-28T10:05:10;2.87;;;2.00;;
16593;SDS011;8410;52.532;13.336;2023-02-28T10:07:47;4.30;;;2.27;;
16593;SDS011;8410;52.532;13.336;2023-02-28T10:10:28;3.47;;;2.00;;
16593;SDS011;8410;52.532;13.336;2023-02-28T10:13:00;4.00;;;2.10;;
16593;SDS011;8410;52.532;13.336;2023-02-28T10:15:32;2.97;;;1.90;;
16593;SDS011;8410;52.532;13.336;2023-02-28T10:18:03;3.83;;;2.17;;
16593;SDS011;8410;52.532;13.336;2023-02-28T10:20:37;2.80;;;2.20;;
16593;SDS011;8410;52.532;13.336;2023-02-28T10:23:09;5.17;;;2.13;;
16593;SDS011;8410;52.532;13.336;2023-02-28T10:25:41;3.47;;;2.10;;
16593;SDS011;8410;52.532;13.336;2023-02-28T10:28:14;4.47;;;1.70;;
16593;SDS011;8410;52.532;13.336;2023-02-28T10:30:45;5.23;;;2.20;;
16593;SDS011;8410;52.532;13.336;2023-02-28T10:33:18;2.40;;;2.07;;
16593;SDS011;8410;52.532;13.336;2023-02-28T10:35:50;4.07;;;2.20;;
16593;SDS011;8410;52.532;13.336;2023-02-28T10:38:19;5.03;;;2.10;;
16593;SDS011;8410;52.532;13.336;2023-02-28T10:40:48;2.67;;;2.27;;
16593;SDS011;8410;52.532;13.336;2023-02-28T10:43:20;4.60;;;2.50;;
16593;SDS011;8410;52.532;13.336;2023-02-28T10:45:55;3.13;;;2.60;;
16593;SDS011;8410;52.532;13.336;2023-02-28T10:48:27;4.07;;;2.10;;
16593;SDS011;8410;52.532;13.336;2023-02-28T10:51:00;4.47;;;3.87;;
16593;SDS011;8410;52.532;13.336;2023-02-28T10:53:31;4.93;;;2.43;;
16593;SDS011;8410;52.532;13.336;2023-02-28T10:56:21;3.23;;;2.10;;
16593;SDS011;8410;52.532;13.336;2023-02-28T10:58:51;5.97;;;2.03;;
16593;SDS011;8410;52.532;13.336;2023-02-28T11:01:21;3.20;;;1.97;;
16593;SDS011;8410;52.532;13.336;2023-02-28T11:03:51;2.73;;;1.60;;
16593;SDS011;8410;52.532;13.336;2023-02-28T11:06:21;2.47;;;1.83;;
16593;SDS011;8410;52.532;13.336;2023-02-28T11:08:50;3.27;;;1.77;;
16593;SDS011;8410;52.532;13.336;2023-02-28T11:11:21;2.60;;;2.10;;
16593;SDS011;8410;52.532;13.336;2023-02-28T11:13:51;3.93;;;1.90;;
16593;SDS011;8410;52.532;13.336;2023-02-28T11:16:21;5.30;;;2.00;;
16593;SDS011;8410;52.532;13.336;2023-02-28T11:18:58;3.10;;;1.77;;
16593;SDS011;8410;52.532;13.336;2023-02-28T11:21:29;2.03;;;1.83;;
16593;SDS011;8410;52.532;13.336;2023-02-28T11:24:02;2.80;;;2.10;;
16593;SDS011;8410;52.532;13.336;2023-02-28T11:26:37;3.97;;;2.00;;
16593;SDS011;8410;52.532;13.336;2023-02-28T11:29:11;3.57;;;1.77;;
16593;SDS011;8410;52.532;13.336;2023-02-28T11:31:57;2.87;;;2.20;;
16593;SDS011;8410;52.532;13.336;2023-02-28T11:34:29;2.80;;;2.00;;
16593;SDS011;8410;52.532;13.336;2023-02-28T11:36:58;3.00;;;2.10;;
16593;SDS011;8410;52.532;13.336;2023-02-28T11:39:31;2.30;;;2.10;;
16593;SDS011;8410;52.532;13.336;2023-02-28T11:42:05;4.07;;;1.90;;
16593;SDS011;8410;52.532;13.336;2023-02-28T11:44:54;2.83;;;2.00;;
16593;SDS011;8410;52.532;13.336;2023-02-28T11:47:32;4.90;;;2.10;;
16593;SDS011;8410;52.532;13.336;2023-02-28T11:50:13;4.10;;;2.00;;
16593;SDS011;8410;52.532;13.336;2023-02-28T11:53:00;6.03;;;2.33;;
16593;SDS011;8410;52.532;13.336;2023-02-28T11:55:32;2.93;;;2.20;;
16593;SDS011;8410;52.532;13.336;2023-02-28T12:00:59;5.30;;;2.33;;
16593;SDS011;8410;52.532;13.336;2023-02-28T12:03:37;3.60;;;2.17;;
16593;SDS011;8410;52.532;13.336;2023-02-28T12:06:16;3.03;;;2.30;;
16593;SDS011;8410;52.532;13.336;2023-02-28T12:08:51;3.97;;;2.63;;
16593;SDS011;8410;52.532;13.336;2023-02-28T12:11:30;4.40;;;2.70;;
16593;SDS011;8410;52.532;13.336;2023-02-28T12:14:16;3.90;;;2.50;;
16593;SDS011;8410;52.532;13.336;2023-02-28T12:16:57;5.47;;;2.97;;
16593;SDS011;8410;52.532;13.336;2023-02-28T12:19:35;3.67;;;2.67;;
16593;SDS011;8410;52.532;13.336;2023-02-28T12:22:21;3.87;;;2.80;;
16593;SDS011;8410;52.532;13.336;2023-02-28T12:25:18;4.13;;;2.30;;
16593;SDS011;8410;52.532;13.336;2023-02-28T12:27:53;3.57;;;2.60;;
16593;SDS011;8410;52.532;13.336;2023-02-28T12:30:22;6.17;;;2.70;;
16593;SDS011;8410;52.532;13.336;2023-02-28T12:32:53;4.07;;;2.70;;
16593;SDS011;8410;52.532;13.336;2023-02-28T12:35:24;4.23;;;2.87;;
16593;SDS011;8410;52.532;13.336;2023-02-28T12:37:55;3.63;;;2.60;;
16593;SDS011;8410;52.532;13.336;2023-02-28T12:40:28;5.13;;;2.87;;
16593;SDS011;8410;52.532;13.336;2023-02-28T12:43:07;4.00;;;2.97;;
16593;SDS011;8410;52.532;13.336;2023-02-28T12:45:39;3.33;;;2.77;;
16593;SDS011;8410;52.532;13.336;2023-02-28T12:48:10;3.57;;;2.77;;
16593;SDS011;8410;52.532;13.336;2023-02-28T12:50:42;3.90;;;2.90;;
16593;SDS011;8410;52.532;13.336;2023-02-28T12:53:11;3.07;;;2.60;;
16593;SDS011;8410;52.532;13.336;2023-02-28T12:55:48;5.60;;;2.97;;
16593;SDS011;8410;52.532;13.336;2023-02-28T12:58:20;4.97;;;3.23;;
16593;SDS011;8410;52.532;13.336;2023-02-28T13:01:04;5.63;;;2.90;;
16593;SDS011;8410;52.532;13.336;2023-02-28T13:03:51;4.33;;;2.93;;
16593;SDS011;8410;52.532;13.336;2023-02-28T13:06:35;3.77;;;3.27;;
16593;SDS011;8410;52.532;13.336;2023-02-28T13:09:12;5.53;;;3.30;;
16593;SDS011;8410;52.532;13.336;2023-02-28T13:11:46;3.00;;;2.53;;
16593;SDS011;8410;52.532;13.336;2023-02-28T13:14:24;5.23;;;2.90;;
16593;SDS011;8410;52.532;13.336;2023-02-28T13:16:58;3.40;;;2.63;;
16593;SDS011;8410;52.532;13.336;2023-02-28T13:19:30;3.70;;;2.67;;
16593;SDS011;8410;52.532;13.336;2023-02-28T13:21:59;3.53;;;2.60;;
16593;SDS011;8410;52.532;13.336;2023-02-28T13:24:42;5.67;;;3.17;;
16593;SDS011;8410;52.532;13.336;2023-02-28T13:27:23;3.53;;;2.60;;
16593;SDS011;8410;52.532;13.336;2023-02-28T13:30:00;4.23;;;2.63;;
16593;SDS011;8410;52.532;13.336;2023-02-28T13:32:35;12.83;;;3.70;;
16593;SDS011;8410;52.532;13.336;2023-02-28T13:35:12;3.23;;;2.60;;
16593;SDS011;8410;52.532;13.336;2023-02-28T13:37:42;5.30;;;2.73;;
16593;SDS011;8410;52.532;13.336;2023-02-28T13:40:26;6.23;;;3.30;;
16593;SDS011;8410;52.532;13.336;2023-02-28T13:42:58;5.53;;;2.70;;
16593;SDS011;8410;52.532;13.336;2023-02-28T13:45:26;3.83;;;2.13;;
16593;SDS011;8410;52.532;13.336;2023-02-28T13:47:55;4.80;;;3.20;;
16593;SDS011;8410;52.532;13.336;2023-02-28T13:50:27;4.10;;;2.80;;
16593;SDS011;8410;52.532;13.336;2023-02-28T13:53:03;5.20;;;3.10;;
16593;SDS011;8410;52.532;13.336;2023-02-28T13:56:07;6.10;;;2.90;;
16593;SDS011;8410;52.532;13.336;2023-02-28T13:58:53;4.47;;;2.93;;
16593;SDS011;8410;52.532;13.336;2023-02-28T14:01:26;4.97;;;3.47;;
16593;SDS011;8410;52.532;13.336;2023-02-28T14:04:19;5.60;;;2.90;;
16593;SDS011;8410;52.532;13.336;2023-02-28T14:07:05;7.07;;;3.37;;
16593;SDS011;8410;52.532;13.336;2023-02-28T14:09:34;3.90;;;3.20;;
16593;SDS011;8410;52.532;13.336;2023-02-28T14:15:27;4.67;;;3.03;;
16593;SDS011;8410;52.532;13.336;2023-02-28T14:18:06;5.33;;;3.47;;
16593;SDS011;8410;52.532;13.336;2023-02-28T14:20:44;6.13;;;3.10;;
16593;SDS011;8410;52.532;13.336;2023-02-28T14:23:16;5.30;;;3.10;;
16593;SDS011;8410;52.532;13.336;2023-02-28T14:26:00;3.90;;;3.00;;
16593;SDS011;8410;52.532;13.336;2023-02-28T14:28:39;6.97;;;3.20;;
16593;SDS011;8410;52.532;13.336;2023-02-28T14:31:19;4.07;;;2.63;;
16593;SDS011;8410;52.532;13.336;2023-02-28T14:34:02;3.63;;;3.00;;
16593;SDS011;8410;52.532;13.336;2023-02-28T14:36:44;4.37;;;2.53;;
16593;SDS011;8410;52.532;13.336;2023-02-28T14:39:13;6.77;;;3.30;;
16593;SDS011;8410;52.532;13.336;2023-02-28T14:41:42;5.37;;;3.07;;
16593;SDS011;8410;52.532;13.336;2023-02-28T14:44:15;5.50;;;2.97;;
16593;SDS011;8410;52.532;13.336;2023-02-28T14:46:46;4.10;;;2.43;;
16593;SDS011;8410;52.532;13.336;2023-02-28T14:49:17;6.20;;;3.57;;
16593;SDS011;8410;52.532;13.336;2023-02-28T14:51:47;3.77;;;2.87;;
16593;SDS011;8410;52.532;13.336;2023-02-28T14:54:24;3.33;;;2.43;;
16593;SDS011;8410;52.532;13.336;2023-02-28T14:56:52;2.87;;;2.40;;
16593;SDS011;8410;52.532;13.336;2023-02-28T14:59:23;4.23;;;3.17;;
16593;SDS011;8410;52.532;13.336;2023-02-28T15:04:53;4.90;;;3.60;;
16593;SDS011;8410;52.532;13.336;2023-02-28T15:07:23;4.83;;;3.03;;
16593;SDS011;8410;52.532;13.336;2023-02-28T15:10:06;3.83;;;3.13;;
16593;SDS011;8410;52.532;13.336;2023-02-28T15:12:35;7.27;;;2.90;;
16593;SDS011;8410;52.532;13.336;2023-02-28T15:15:04;4.53;;;2.80;;
16593;SDS011;8410;52.532;13.336;2023-02-28T15:17:35;6.63;;;3.60;;
16593;SDS011;8410;52.532;13.336;2023-02-28T15:20:03;4.30;;;2.80;;
16593;SDS011;8410;52.532;13.336;2023-02-28T15:22:34;3.53;;;3.07;;
16593;SDS011;8410;52.532;13.336;2023-02-28T15:25:04;6.17;;;2.67;;
16593;SDS011;8410;52.532;13.336;2023-02-28T15:27:34;3.40;;;2.60;;